createdAt,value
2024-03-10T00:01:46.706Z,88.85
2024-03-10T00:04:17.095Z,89.25
2024-03-10T00:06:46.858Z,89.49
2024-03-10T00:09:20.609Z,89.65
2024-03-10T00:11:50.529Z,89.73
2024-03-10T00:14:22.685Z,89.79
2024-03-10T00:16:53.735Z,89.88
2024-03-10T00:19:23.309Z,89.84
2024-03-10T00:21:56.011Z,90.10
2024-03-10T00:24:29.344Z,89.86
2024-03-10T00:27:00.167Z,89.91
2024-03-10T00:29:33.176Z,89.84
2024-03-10T00:32:02.280Z,89.85
2024-03-10T00:34:32.505Z,90.03
2024-03-10T00:37:03.340Z,89.53
2024-03-10T00:39:33.589Z,89.68
2024-03-10T00:42:17.048Z,89.44
2024-03-10T00:44:47.808Z,88.97
2024-03-10T00:47:18.312Z,88.82
2024-03-10T00:49:52.942Z,88.87
2024-03-10T00:52:25.132Z,88.34
2024-03-10T00:54:58.478Z,88.44
2024-03-10T00:57:28.292Z,88.35
2024-03-10T00:59:58.100Z,88.50
2024-03-10T01:02:35.191Z,88.45
2024-03-10T01:05:06.716Z,88.19
2024-03-10T01:07:39.181Z,88.27
2024-03-10T01:10:09.458Z,88.24
2024-03-10T01:12:39.581Z,88.40
2024-03-10T01:15:13.102Z,88.54
2024-03-10T01:17:44.593Z,88.83
2024-03-10T01:20:34.026Z,88.94
2024-03-10T01:23:05.058Z,89.04
2024-03-10T01:25:36.839Z,89.29
2024-03-10T01:28:09.527Z,89.27
2024-03-10T01:30:56.133Z,89.29
2024-03-10T01:33:26.555Z,89.40
2024-03-10T01:35:59.179Z,89.76
2024-03-10T01:38:29.325Z,89.94
2024-03-10T01:41:00.578Z,89.49
2024-03-10T01:43:33.108Z,89.75
2024-03-10T01:46:09.460Z,89.56
2024-03-10T01:48:42.630Z,89.80
2024-03-10T01:51:15.927Z,89.86
2024-03-10T01:53:45.821Z,89.71
2024-03-10T01:56:17.594Z,89.84
2024-03-10T01:58:49.256Z,89.89
2024-03-10T02:01:29.889Z,89.64
2024-03-10T02:04:03.442Z,90.31
2024-03-10T02:06:36.935Z,89.91
2024-03-10T02:09:14.636Z,89.81
2024-03-10T02:11:45.608Z,89.60
2024-03-10T02:14:17.277Z,89.85
2024-03-10T02:16:45.863Z,89.68
2024-03-10T02:19:19.062Z,89.86
2024-03-10T02:21:51.451Z,89.82
2024-03-10T02:24:41.494Z,90.20
2024-03-10T02:27:19.885Z,90.27
2024-03-10T02:30:22.830Z,90.29
2024-03-10T02:33:20.374Z,90.23
2024-03-10T02:36:08.292Z,90.32
2024-03-10T02:38:56.717Z,90.52
2024-03-10T02:41:47.509Z,90.64
2024-03-10T02:44:37.889Z,90.87
2024-03-10T02:47:15.462Z,91.00
2024-03-10T02:49:45.066Z,90.90
2024-03-10T02:52:15.703Z,91.14
2024-03-10T02:54:43.552Z,91.10
2024-03-10T02:57:15.078Z,91.50
2024-03-10T02:59:47.025Z,91.69
2024-03-10T03:02:20.752Z,91.26
2024-03-10T03:04:52.198Z,91.82
2024-03-10T03:07:21.198Z,91.86
2024-03-10T03:10:00.651Z,91.73
2024-03-10T03:12:30.195Z,91.55
2024-03-10T03:15:01.432Z,91.34
2024-03-10T03:17:32.736Z,91.33
2024-03-10T03:20:19.493Z,90.92
2024-03-10T03:22:48.807Z,91.65
2024-03-10T03:25:22.170Z,91.31
2024-03-10T03:27:52.789Z,91.10
2024-03-10T03:30:21.776Z,91.26
2024-03-10T03:33:08.514Z,91.10
2024-03-10T03:35:41.345Z,91.56
2024-03-10T03:38:13.571Z,91.65
2024-03-10T03:41:07.116Z,91.53
2024-03-10T03:43:38.513Z,91.98
2024-03-10T03:46:10.426Z,91.70
2024-03-10T03:48:40.367Z,92.19
2024-03-10T03:51:10.969Z,92.07
2024-03-10T03:53:40.216Z,92.28
2024-03-10T03:56:10.636Z,92.26
2024-03-10T03:58:40.560Z,92.11
2024-03-10T04:01:12.116Z,92.22
2024-03-10T04:03:42.147Z,92.14
2024-03-10T04:06:13.090Z,92.20
2024-03-10T04:08:44.447Z,92.10
2024-03-10T04:11:13.927Z,92.63
2024-03-10T04:13:53.407Z,92.12
2024-03-10T04:16:24.411Z,92.14
2024-03-10T04:18:55.105Z,91.96
2024-03-10T04:21:24.907Z,92.26
2024-03-10T04:23:55.417Z,92.20
2024-03-10T04:26:28.078Z,92.14
2024-03-10T04:28:58.346Z,92.21
2024-03-10T04:31:30.982Z,92.03
2024-03-10T04:34:00.220Z,92.05
2024-03-10T04:36:32.720Z,92.08
2024-03-10T04:39:06.345Z,92.14
2024-03-10T04:41:40.543Z,92.23
2024-03-10T04:44:08.802Z,91.92
2024-03-10T04:46:41.117Z,92.09
2024-03-10T04:49:13.959Z,92.06
2024-03-10T04:51:45.452Z,92.47
2024-03-10T04:54:15.360Z,92.19
2024-03-10T04:56:46.559Z,92.24
2024-03-10T04:59:20.633Z,92.42
2024-03-10T05:01:51.766Z,92.51
2024-03-10T05:04:21.441Z,92.34
2024-03-10T05:06:49.191Z,92.36
2024-03-10T05:09:22.210Z,92.69
2024-03-10T05:11:55.914Z,92.78
2024-03-10T05:14:26.266Z,92.76
2024-03-10T05:17:05.330Z,92.66
2024-03-10T05:19:37.381Z,92.56
2024-03-10T05:22:06.593Z,92.45
2024-03-10T05:24:37.694Z,92.72
2024-03-10T05:27:09.110Z,92.88
2024-03-10T05:29:47.501Z,92.44
2024-03-10T05:32:18.524Z,92.74
2024-03-10T05:34:50.801Z,92.68
2024-03-10T05:37:20.556Z,92.91
2024-03-10T05:39:57.174Z,92.97
2024-03-10T05:42:29.149Z,92.78
2024-03-10T05:45:04.367Z,93.19
2024-03-10T05:47:36.062Z,93.21
2024-03-10T05:50:06.471Z,93.10
2024-03-10T05:52:35.939Z,93.38
2024-03-10T05:55:09.574Z,93.40
2024-03-10T05:57:40.354Z,93.54
2024-03-10T06:00:16.991Z,93.28
2024-03-10T06:02:49.916Z,93.55
2024-03-10T06:05:23.046Z,93.60
2024-03-10T06:07:57.967Z,93.37
2024-03-10T06:10:29.211Z,93.51
2024-03-10T06:13:01.610Z,93.45
2024-03-10T06:15:31.384Z,93.57
2024-03-10T06:18:20.283Z,93.61
2024-03-10T06:21:10.354Z,93.91
2024-03-10T06:24:02.026Z,94.14
2024-03-10T06:26:41.797Z,94.00
2024-03-10T06:29:13.050Z,93.94
2024-03-10T06:31:42.797Z,94.31
2024-03-10T06:34:15.131Z,94.21
2024-03-10T06:36:46.807Z,94.32
2024-03-10T06:39:21.226Z,94.39
2024-03-10T06:41:53.343Z,94.13
2024-03-10T06:44:29.323Z,93.93
2024-03-10T06:46:58.871Z,93.81
2024-03-10T06:49:30.905Z,93.44
2024-03-10T06:52:01.567Z,93.64
2024-03-10T06:54:30.896Z,93.45
2024-03-10T06:57:10.780Z,93.27
2024-03-10T06:59:43.177Z,93.56
2024-03-10T07:02:14.099Z,93.93
2024-03-10T07:04:48.399Z,93.86
2024-03-10T07:07:18.619Z,93.95
2024-03-10T07:09:48.824Z,93.82
2024-03-10T07:12:36.388Z,93.86
2024-03-10T07:15:05.129Z,93.92
2024-03-10T07:17:34.700Z,93.85
2024-03-10T07:20:07.107Z,93.83
2024-03-10T07:22:39.534Z,93.44
2024-03-10T07:25:17.019Z,93.40
2024-03-10T07:27:55.072Z,93.33
2024-03-10T07:30:25.239Z,93.05
2024-03-10T07:32:54.050Z,93.22
2024-03-10T07:35:25.596Z,93.23
2024-03-10T07:37:58.905Z,93.27
2024-03-10T07:40:48.227Z,93.24
2024-03-10T07:43:24.997Z,92.78
2024-03-10T07:45:55.624Z,92.20
2024-03-10T07:48:26.334Z,91.73
2024-03-10T07:50:57.162Z,91.76
2024-03-10T07:53:26.804Z,91.38
2024-03-10T07:56:00.098Z,91.14
2024-03-10T07:58:32.574Z,91.30
2024-03-10T08:01:02.888Z,90.81
2024-03-10T08:03:32.800Z,90.94
2024-03-10T08:06:02.237Z,91.24
2024-03-10T08:08:32.190Z,90.83
2024-03-10T08:11:05.421Z,90.69
2024-03-10T08:13:37.732Z,90.15
2024-03-10T08:16:10.907Z,89.87
2024-03-10T08:18:42.582Z,89.38
2024-03-10T08:21:15.177Z,89.60
2024-03-10T08:23:46.641Z,89.31
2024-03-10T08:26:16.359Z,89.27
2024-03-10T08:28:49.382Z,89.92
2024-03-10T08:31:23.530Z,91.67
2024-03-10T08:33:57.012Z,92.91
2024-03-10T08:36:24.693Z,93.86
2024-03-10T08:38:56.208Z,94.95
2024-03-10T08:41:27.250Z,95.81
2024-03-10T08:43:58.276Z,96.20
2024-03-10T08:46:26.852Z,97.11
2024-03-10T08:49:00.421Z,97.69
2024-03-10T08:51:37.246Z,97.52
2024-03-10T08:54:10.359Z,97.09
2024-03-10T08:56:50.835Z,97.12
2024-03-10T08:59:29.628Z,97.38
2024-03-10T09:01:58.024Z,97.08
2024-03-10T09:04:27.441Z,96.22
2024-03-10T09:07:00.333Z,96.43
2024-03-10T09:09:29.845Z,95.55
2024-03-10T09:12:02.868Z,94.22
2024-03-10T09:14:36.581Z,94.13
2024-03-10T09:17:07.144Z,95.64
2024-03-10T09:19:36.778Z,92.53
2024-03-10T09:22:09.697Z,93.46
2024-03-10T09:24:44.230Z,93.24
2024-03-10T09:27:16.641Z,91.84
2024-03-10T09:29:48.818Z,92.32
2024-03-10T09:32:22.977Z,92.74
2024-03-10T09:34:58.335Z,91.41
2024-03-10T09:37:30.837Z,91.24
2024-03-10T09:40:01.537Z,90.65
2024-03-10T09:42:32.556Z,90.06
2024-03-10T09:45:01.580Z,88.83
2024-03-10T09:47:42.313Z,88.95
2024-03-10T09:50:20.398Z,88.71
2024-03-10T09:52:50.531Z,86.44
2024-03-10T09:55:22.250Z,86.78
2024-03-10T09:57:54.713Z,87.27
2024-03-10T10:00:29.809Z,87.20
2024-03-10T10:03:07.875Z,87.56
2024-03-10T10:05:46.536Z,86.10
2024-03-10T10:08:19.701Z,85.63
2024-03-10T10:10:54.109Z,83.91
2024-03-10T10:13:27.403Z,83.74
2024-03-10T10:16:09.993Z,83.04
2024-03-10T10:18:47.664Z,82.47
2024-03-10T10:21:30.294Z,81.85
2024-03-10T10:24:03.433Z,82.38
2024-03-10T10:26:36.589Z,81.46
2024-03-10T10:29:09.684Z,81.72
2024-03-10T10:31:42.026Z,81.32
2024-03-10T10:34:17.728Z,81.45
2024-03-10T10:36:52.998Z,81.13
2024-03-10T10:39:32.624Z,80.15
2024-03-10T10:42:02.622Z,78.92
2024-03-10T10:44:34.596Z,79.17
2024-03-10T10:47:08.053Z,79.60
2024-03-10T10:49:41.435Z,79.67
2024-03-10T10:52:13.724Z,80.71
2024-03-10T10:54:42.729Z,79.72
2024-03-10T10:57:12.193Z,79.16
2024-03-10T10:59:41.930Z,78.38
2024-03-10T11:02:17.406Z,78.19
2024-03-10T11:04:48.265Z,77.41
2024-03-10T11:07:17.932Z,76.69
2024-03-10T11:09:51.153Z,76.28
2024-03-10T11:12:21.121Z,75.72
2024-03-10T11:14:59.917Z,75.47
2024-03-10T11:17:31.668Z,76.11
2024-03-10T11:20:11.365Z,75.41
2024-03-10T11:23:08.984Z,75.53
2024-03-10T11:25:52.207Z,74.56
2024-03-10T11:28:34.941Z,75.30
2024-03-10T11:31:06.473Z,75.30
2024-03-10T11:33:37.536Z,76.44
2024-03-10T11:36:12.079Z,74.98
2024-03-10T11:38:42.126Z,74.11
2024-03-10T11:41:20.773Z,73.14
2024-03-10T11:44:13.360Z,71.44
2024-03-10T11:46:58.875Z,71.94
2024-03-10T11:49:34.570Z,70.34
2024-03-10T11:52:09.405Z,70.98
2024-03-10T11:54:42.015Z,71.38
2024-03-10T11:57:33.233Z,70.62
2024-03-10T12:00:07.099Z,70.52
2024-03-10T12:03:06.787Z,69.33
2024-03-10T12:05:41.299Z,69.81
2024-03-10T12:08:15.602Z,69.18
2024-03-10T12:10:49.442Z,68.52
2024-03-10T12:13:24.957Z,68.95
2024-03-10T12:16:00.208Z,68.05
2024-03-10T12:18:38.166Z,68.67
2024-03-10T12:21:16.483Z,69.00
2024-03-10T12:23:48.883Z,69.42
2024-03-10T12:26:31.417Z,68.43
2024-03-10T12:29:02.086Z,68.56
2024-03-10T12:31:51.891Z,68.23
2024-03-10T12:34:35.314Z,69.25
2024-03-10T12:37:08.777Z,68.14
2024-03-10T12:39:39.011Z,68.06
2024-03-10T12:42:11.490Z,67.29
2024-03-10T12:44:43.440Z,66.45
2024-03-10T12:47:12.068Z,66.04
2024-03-10T12:49:41.604Z,66.48
2024-03-10T12:52:37.815Z,66.49
2024-03-10T12:55:11.602Z,66.13
2024-03-10T12:57:59.560Z,67.12
2024-03-10T13:00:32.718Z,68.47
2024-03-10T13:03:03.383Z,68.10
2024-03-10T13:05:36.192Z,67.79
2024-03-10T13:08:26.367Z,67.48
2024-03-10T13:10:57.862Z,66.83
2024-03-10T13:13:26.879Z,66.74
2024-03-10T13:15:57.297Z,66.50
2024-03-10T13:18:56.472Z,66.97
2024-03-10T13:21:27.495Z,67.75
2024-03-10T13:23:56.264Z,67.43
2024-03-10T13:26:24.277Z,67.07
2024-03-10T13:28:54.857Z,66.75
2024-03-10T13:31:24.842Z,66.83
2024-03-10T13:33:59.415Z,66.86
2024-03-10T13:36:29.130Z,66.68
2024-03-10T13:38:58.239Z,66.62
2024-03-10T13:41:29.297Z,66.74
2024-03-10T13:43:57.515Z,66.81
2024-03-10T13:46:28.710Z,66.79
2024-03-10T13:48:59.126Z,67.47
2024-03-10T13:51:27.423Z,67.17
2024-03-10T13:53:57.232Z,67.12
2024-03-10T13:56:28.829Z,67.33
2024-03-10T13:58:57.555Z,66.96
2024-03-10T14:01:28.160Z,67.66
2024-03-10T14:04:07.991Z,68.02
2024-03-10T14:07:01.328Z,67.55
2024-03-10T14:09:32.822Z,67.79
2024-03-10T14:12:09.116Z,68.63
2024-03-10T14:14:36.828Z,68.82
2024-03-10T14:17:07.288Z,69.41
2024-03-10T14:19:39.744Z,69.86
2024-03-10T14:22:08.480Z,69.34
2024-03-10T14:24:36.610Z,70.12
2024-03-10T14:27:10.108Z,69.94
2024-03-10T14:29:41.507Z,69.87
2024-03-10T14:32:13.313Z,70.06
2024-03-10T14:34:41.743Z,69.84
2024-03-10T14:37:10.070Z,70.27
2024-03-10T14:39:38.552Z,70.67
2024-03-10T14:42:13.937Z,71.00
2024-03-10T14:44:45.935Z,71.56
2024-03-10T14:47:22.827Z,71.61
2024-03-10T14:49:50.334Z,71.77
2024-03-10T14:52:24.775Z,72.38
2024-03-10T14:54:54.802Z,72.93
2024-03-10T14:57:29.661Z,73.36
2024-03-10T15:00:02.385Z,73.34
2024-03-10T15:02:30.814Z,73.87
2024-03-10T15:05:00.787Z,74.00
2024-03-10T15:07:43.001Z,74.39
2024-03-10T15:10:16.293Z,74.63
2024-03-10T15:12:47.504Z,74.88
2024-03-10T15:15:21.414Z,75.15
2024-03-10T15:17:50.844Z,75.37
2024-03-10T15:20:21.469Z,74.46
2024-03-10T15:22:55.678Z,73.47
2024-03-10T15:25:28.087Z,72.72
2024-03-10T15:28:00.198Z,72.02
2024-03-10T15:30:29.833Z,71.60
2024-03-10T15:32:59.825Z,71.83
2024-03-10T15:35:28.475Z,72.48
2024-03-10T15:37:57.656Z,72.91
2024-03-10T15:40:28.448Z,73.20
2024-03-10T15:43:15.619Z,73.39
2024-03-10T15:45:48.823Z,73.52
2024-03-10T15:48:20.850Z,73.79
2024-03-10T15:50:56.102Z,74.03
2024-03-10T15:53:27.981Z,74.42
2024-03-10T15:56:01.293Z,74.65
2024-03-10T15:58:30.187Z,75.05
2024-03-10T16:01:03.141Z,75.42
2024-03-10T16:03:49.587Z,75.78
2024-03-10T16:06:19.357Z,76.23
2024-03-10T16:08:51.178Z,76.82
2024-03-10T16:11:20.035Z,77.31
2024-03-10T16:14:04.020Z,77.84
2024-03-10T16:16:36.596Z,78.41
2024-03-10T16:19:05.402Z,78.98
2024-03-10T16:21:39.371Z,79.61
2024-03-10T16:24:14.983Z,80.18
2024-03-10T16:26:45.880Z,80.56
2024-03-10T16:29:17.086Z,80.83
2024-03-10T16:31:56.099Z,81.20
2024-03-10T16:34:32.165Z,81.76
2024-03-10T16:37:02.978Z,81.98
2024-03-10T16:39:53.907Z,82.69
2024-03-10T16:42:45.783Z,83.36
2024-03-10T16:45:21.446Z,84.04
2024-03-10T16:48:01.581Z,84.63
2024-03-10T16:50:38.881Z,84.88
2024-03-10T16:53:09.337Z,85.12
2024-03-10T16:55:41.128Z,85.43
2024-03-10T16:58:11.102Z,86.05
2024-03-10T17:00:46.684Z,86.65
2024-03-10T17:03:18.413Z,87.06
2024-03-10T17:05:49.673Z,88.00
2024-03-10T17:08:24.692Z,89.25
2024-03-10T17:10:55.823Z,89.80
2024-03-10T17:13:28.563Z,90.45
2024-03-10T17:16:23.465Z,91.14
2024-03-10T17:18:52.257Z,91.96
2024-03-10T17:21:24.986Z,92.82
2024-03-10T17:23:57.734Z,93.89
2024-03-10T17:26:29.553Z,94.77
2024-03-10T17:29:02.498Z,95.44
2024-03-10T17:31:34.748Z,96.46
2024-03-10T17:34:03.526Z,96.80
2024-03-10T17:36:34.312Z,97.52
2024-03-10T17:39:05.981Z,97.85
2024-03-10T17:41:40.825Z,98.34
2024-03-10T17:44:10.771Z,98.87
2024-03-10T17:46:40.423Z,99.13
2024-03-10T17:49:12.623Z,99.34
2024-03-10T17:51:43.305Z,99.60
2024-03-10T17:54:36.011Z,99.96
2024-03-10T17:57:15.249Z,100.00
2024-03-10T17:59:56.668Z,100.00
2024-03-10T18:02:26.182Z,100.00
2024-03-10T18:05:03.332Z,100.00
2024-03-10T18:07:33.032Z,100.00
2024-03-10T18:10:06.519Z,100.00
2024-03-10T18:12:49.312Z,100.00
2024-03-10T18:15:27.391Z,100.00
2024-03-10T18:18:01.462Z,100.00
2024-03-10T18:20:31.750Z,100.00
2024-03-10T18:23:02.343Z,100.00
2024-03-10T18:25:37.906Z,100.00
2024-03-10T18:28:45.083Z,100.00
2024-03-10T18:31:24.408Z,100.00
2024-03-10T18:33:55.650Z,100.00
2024-03-10T18:36:46.543Z,100.00
2024-03-10T18:39:20.925Z,100.00
2024-03-10T18:42:02.957Z,100.00
2024-03-10T18:44:35.709Z,100.00
2024-03-10T18:47:11.303Z,100.00
2024-03-10T18:49:49.027Z,100.00
2024-03-10T18:52:23.200Z,100.00
2024-03-10T18:54:53.579Z,100.00
2024-03-10T18:57:45.583Z,100.00
2024-03-10T19:00:25.903Z,100.00
2024-03-10T19:03:08.390Z,100.00
2024-03-10T19:05:37.157Z,100.00
2024-03-10T19:08:16.287Z,100.00
2024-03-10T19:10:48.844Z,100.00
2024-03-10T19:13:32.510Z,100.00
2024-03-10T19:16:05.899Z,100.00
2024-03-10T19:18:34.782Z,100.00
2024-03-10T19:21:17.246Z,100.00
2024-03-10T19:23:51.376Z,100.00
2024-03-10T19:26:21.752Z,100.00
2024-03-10T19:29:28.364Z,100.00
2024-03-10T19:32:01.377Z,100.00
2024-03-10T19:34:53.506Z,100.00
2024-03-10T19:37:48.986Z,100.00
2024-03-10T19:40:24.162Z,100.00
2024-03-10T19:43:00.351Z,100.00
2024-03-10T19:45:58.432Z,100.00
2024-03-10T19:48:31.286Z,100.00
2024-03-10T19:51:24.434Z,100.00
2024-03-10T19:53:58.109Z,100.00
2024-03-10T19:56:29.938Z,100.00
2024-03-10T19:59:05.155Z,100.00
2024-03-10T20:01:36.663Z,100.00
2024-03-10T20:04:30.050Z,100.00
2024-03-10T20:07:00.593Z,100.00
2024-03-10T20:09:36.662Z,100.00
2024-03-10T20:12:10.375Z,100.00
2024-03-10T20:14:44.283Z,100.00
2024-03-10T20:17:42.687Z,100.00
2024-03-10T20:20:26.934Z,100.00
2024-03-10T20:23:15.534Z,100.00
2024-03-10T20:26:04.659Z,100.00
2024-03-10T20:28:52.362Z,100.00
2024-03-10T20:31:35.668Z,100.00
2024-03-10T20:34:32.171Z,100.00
2024-03-10T20:37:20.079Z,100.00
2024-03-10T20:39:54.295Z,100.00
2024-03-10T20:42:25.434Z,100.00
2024-03-10T20:44:57.663Z,100.00
2024-03-10T20:47:37.307Z,100.00
2024-03-10T20:50:36.447Z,100.00
2024-03-10T20:53:29.182Z,100.00
2024-03-10T20:56:09.895Z,100.00
2024-03-10T20:58:41.272Z,100.00
2024-03-10T21:01:23.556Z,100.00
2024-03-10T21:04:02.536Z,100.00
2024-03-10T21:06:40.102Z,100.00
2024-03-10T21:09:27.415Z,100.00
2024-03-10T21:12:02.663Z,100.00
2024-03-10T21:14:32.497Z,100.00
2024-03-10T21:17:05.536Z,100.00
2024-03-10T21:19:40.628Z,100.00
2024-03-10T21:22:11.555Z,100.00
2024-03-10T21:24:48.286Z,100.00
2024-03-10T21:27:21.258Z,100.00
2024-03-10T21:29:54.875Z,100.00
2024-03-10T21:32:24.765Z,100.00
2024-03-10T21:34:57.161Z,100.00
2024-03-10T21:37:29.075Z,100.00
2024-03-10T21:40:16.054Z,100.00
2024-03-10T21:42:48.602Z,100.00
2024-03-10T21:45:17.976Z,100.00
2024-03-10T21:47:47.401Z,100.00
2024-03-10T21:50:21.866Z,100.00
2024-03-10T21:52:52.360Z,100.00
2024-03-10T21:55:24.660Z,100.00
2024-03-10T21:57:58.181Z,100.00
2024-03-10T22:00:29.238Z,100.00
2024-03-10T22:03:00.752Z,100.00
2024-03-10T22:05:29.988Z,100.00
2024-03-10T22:08:09.716Z,100.00
2024-03-10T22:10:43.593Z,100.00
2024-03-10T22:13:13.603Z,100.00
2024-03-10T22:16:10.730Z,100.00
2024-03-10T22:18:41.137Z,100.00
2024-03-10T22:21:12.520Z,100.00
2024-03-10T22:23:44.899Z,100.00
2024-03-10T22:26:16.155Z,100.00
2024-03-10T22:28:51.957Z,100.00
2024-03-10T22:31:22.860Z,100.00
2024-03-10T22:33:52.142Z,100.00
2024-03-10T22:36:22.600Z,100.00
2024-03-10T22:38:54.778Z,100.00
2024-03-10T22:41:27.153Z,100.00
2024-03-10T22:43:59.815Z,100.00
2024-03-10T22:46:33.580Z,100.00
2024-03-10T22:49:04.544Z,100.00
2024-03-10T22:51:33.299Z,100.00
2024-03-10T22:54:06.367Z,100.00
2024-03-10T22:56:36.292Z,100.00
2024-03-10T22:59:08.007Z,100.00
2024-03-10T23:01:54.732Z,100.00
2024-03-10T23:04:25.115Z,100.00
2024-03-10T23:06:54.428Z,100.00
2024-03-10T23:09:26.782Z,100.00
2024-03-10T23:12:00.718Z,100.00
2024-03-10T23:14:34.370Z,100.00
2024-03-10T23:17:04.010Z,100.00
2024-03-10T23:19:35.780Z,100.00
2024-03-10T23:22:21.896Z,100.00
2024-03-10T23:24:53.533Z,100.00
2024-03-10T23:27:36.527Z,100.00
2024-03-10T23:30:09.795Z,100.00
2024-03-10T23:32:41.911Z,100.00
2024-03-10T23:35:14.077Z,100.00
2024-03-10T23:37:44.969Z,100.00
2024-03-10T23:40:17.151Z,100.00
2024-03-10T23:42:48.609Z,100.00
2024-03-10T23:45:16.969Z,100.00
2024-03-10T23:47:51.584Z,100.00
2024-03-10T23:50:24.701Z,100.00
2024-03-10T23:52:55.308Z,100.00
2024-03-10T23:55:35.139Z,100.00
2024-03-10T23:58:05.136Z,100.00
